Time;durP1;ratioP1;P1;durP2;ratioP2;P2;SDS_P1;SDS_P2;PMS_P1;PMS_P2;Temp;Humidity;BMP_temperature;BMP_pressure;BME280_temperature;BME280_humidity;BME280_pressure;Samples;Min_cycle;Max_cycle;Signal;HPM_P1;HPM_P2
2023/02/05 00:01:34;;;;;;;;;;;;;;;3.73;nan;102628.94;5030740;28;19917;-86
2023/02/05 00:03:59;;;;;;;;;;;;;;;3.77;nan;102620.09;5030030;28;19917;-86
2023/02/05 00:06:24;;;;;;;;;;;;;;;3.79;nan;102618.25;5032155;28;19924;-86
2023/02/05 00:08:49;;;;;;;;;;;;;;;3.80;nan;102623.44;5035567;28;20424;-86
2023/02/05 00:11:15;;;;;;;;;;;;;;;3.79;nan;102618.25;5035175;28;19921;-85
2023/02/05 00:13:41;;;;;;;;;;;;;;;3.80;nan;102622.59;5032476;28;19917;-85
2023/02/05 00:16:13;;;;;;;;;;;;;;;3.80;nan;102622.59;5050162;28;20305;-84
2023/02/05 00:18:38;;;;;;;;;;;;;;;3.81;nan;102625.16;5030766;28;19940;-85
2023/02/05 00:21:04;;;;;;;;;;;;;;;3.82;nan;102624.22;5023279;28;19916;-85
2023/02/05 00:23:29;;;;;;;;;;;;;;;3.91;nan;102619.56;5030367;28;20027;-85
2023/02/05 00:25:55;;;;;;;;;;;;;;;3.95;nan;102622.00;5028434;28;19921;-85
2023/02/05 00:28:20;;;;;;;;;;;;;;;4.01;nan;102624.41;5035877;28;19917;-86
2023/02/05 00:30:45;;;;;;;;;;;;;;;4.09;nan;102615.41;5034425;28;19967;-85
2023/02/05 00:33:10;;;;;;;;;;;;;;;4.11;nan;102610.97;5026340;28;20008;-85
2023/02/05 00:35:35;;;;;;;;;;;;;;;4.11;nan;102609.19;5034133;28;19924;-85
2023/02/05 00:38:01;;;;;;;;;;;;;;;4.12;nan;102608.28;5039695;28;19917;-86
2023/02/05 00:40:26;;;;;;;;;;;;;;;4.13;nan;102606.53;5032461;28;19969;-86
2023/02/05 00:42:51;;;;;;;;;;;;;;;4.16;nan;102609.88;5032203;28;19932;-86
2023/02/05 00:45:16;;;;;;;;;;;;;;;4.19;nan;102608.88;5030299;28;19917;-86
2023/02/05 00:47:41;;;;;;;;;;;;;;;4.23;nan;102602.63;5032404;28;19917;-86
2023/02/05 00:50:07;;;;;;;;;;;;;;;4.27;nan;102601.59;5027390;28;19925;-85
2023/02/05 00:52:32;;;;;;;;;;;;;;;4.28;nan;102599.84;5031338;28;19920;-85
2023/02/05 00:54:57;;;;;;;;;;;;;;;4.30;nan;102600.63;5030736;28;19924;-85
2023/02/05 00:57:23;;;;;;;;;;;;;;;4.33;nan;102600.50;5030998;28;20291;-85
2023/02/05 00:59:49;;;;;;;;;;;;;;;4.35;nan;102604.75;5033697;28;20000;-85
2023/02/05 01:02:14;;;;;;;;;;;;;;;4.41;nan;102601.91;5029051;28;20354;-85
2023/02/05 01:04:39;;;;;;;;;;;;;;;4.45;nan;102603.47;5029767;28;19939;-86
2023/02/05 01:07:04;;;;;;;;;;;;;;;4.50;nan;102597.22;5028035;28;19995;-85
2023/02/05 01:09:29;;;;;;;;;;;;;;;4.50;nan;102600.69;5031863;28;20006;-85
2023/02/05 01:11:55;;;;;;;;;;;;;;;4.54;nan;102591.78;5029942;28;20386;-85
2023/02/05 01:14:20;;;;;;;;;;;;;;;4.57;nan;102591.66;5032998;28;19917;-85
2023/02/05 01:16:45;;;;;;;;;;;;;;;4.61;nan;102584.53;5034702;28;19916;-85
2023/02/05 01:19:13;;;;;;;;;;;;;;;4.61;nan;102572.28;5033801;28;19987;-85
2023/02/05 01:21:39;;;;;;;;;;;;;;;4.66;nan;102579.97;5032501;28;20084;-86
2023/02/05 01:24:05;;;;;;;;;;;;;;;4.65;nan;102576.50;5028977;28;19959;-85
2023/02/05 01:26:31;;;;;;;;;;;;;;;4.66;nan;102572.09;5031843;28;19924;-85
2023/02/05 01:28:57;;;;;;;;;;;;;;;4.67;nan;102574.66;5038070;28;19975;-85
2023/02/05 01:31:23;;;;;;;;;;;;;;;4.69;nan;102571.97;5029332;28;20299;-85
2023/02/05 01:33:49;;;;;;;;;;;;;;;4.70;nan;102562.34;5032460;28;20012;-86
2023/02/05 01:36:14;;;;;;;;;;;;;;;4.69;nan;102558.88;5031855;28;19940;-86
2023/02/05 01:38:39;;;;;;;;;;;;;;;4.68;nan;102554.56;5032092;28;19921;-86
2023/02/05 01:41:05;;;;;;;;;;;;;;;4.66;nan;102546.75;5026983;28;19952;-85
2023/02/05 01:43:31;;;;;;;;;;;;;;;4.63;nan;102541.63;5032313;28;20011;-87
2023/02/05 01:45:56;;;;;;;;;;;;;;;4.61;nan;102543.47;5027401;28;19996;-84
2023/02/05 01:48:23;;;;;;;;;;;;;;;4.57;nan;102541.03;5026057;28;20366;-85
2023/02/05 01:50:54;;;;;;;;;;;;;;;4.47;nan;102538.78;5029715;28;19929;-85
2023/02/05 01:53:27;;;;;;;;;;;;;;;4.40;nan;102541.72;5027045;28;19924;-85
2023/02/05 01:56:01;;;;;;;;;;;;;;;4.30;nan;102541.25;5031828;28;19921;-85
2023/02/05 01:58:29;;;;;;;;;;;;;;;4.20;nan;102539.91;5035474;28;20369;-84
2023/02/05 02:00:54;;;;;;;;;;;;;;;4.07;nan;102541.31;5029417;28;20393;-85
2023/02/05 02:03:21;;;;;;;;;;;;;;;3.94;nan;102530.47;5033940;28;19917;-84
2023/02/05 02:05:46;;;;;;;;;;;;;;;3.83;nan;102526.47;5030337;28;19917;-85
2023/02/05 02:08:12;;;;;;;;;;;;;;;3.87;nan;102535.06;5029581;28;19936;-85
2023/02/05 02:10:38;;;;;;;;;;;;;;;3.88;nan;102517.59;5029970;28;19920;-85
2023/02/05 02:13:04;;;;;;;;;;;;;;;3.91;nan;102512.25;5028567;28;19995;-85
2023/02/05 02:15:29;;;;;;;;;;;;;;;3.88;nan;102500.13;5026992;28;20007;-84
2023/02/05 02:18:24;;;;;;;;;;;;;;;3.88;nan;102507.13;5035294;28;19935;-85
2023/02/05 02:20:47;;;;;;;;;;;;;;;3.79;nan;102496.13;5029859;28;20025;-85
2023/02/05 02:23:15;;;;;;;;;;;;;;;3.72;nan;102499.00;5042152;28;19956;-85
2023/02/05 02:25:55;;;;;;;;;;;;;;;3.63;nan;102502.00;5030898;28;19917;-85
2023/02/05 02:28:26;;;;;;;;;;;;;;;3.51;nan;102501.56;5032641;28;19960;-85
2023/02/05 02:31:01;;;;;;;;;;;;;;;3.43;nan;102502.75;5038487;28;19921;-85
2023/02/05 02:33:29;;;;;;;;;;;;;;;3.35;nan;102501.25;5029769;28;19917;-85
2023/02/05 02:36:13;;;;;;;;;;;;;;;3.36;nan;102513.44;5031470;28;19948;-85
2023/02/05 02:38:42;;;;;;;;;;;;;;;3.37;nan;102509.91;5029754;28;20011;-85
2023/02/05 02:41:13;;;;;;;;;;;;;;;3.42;nan;102507.13;5037085;28;20131;-85
2023/02/05 02:43:51;;;;;;;;;;;;;;;3.45;nan;102508.78;5033358;28;20400;-85
2023/02/05 02:46:31;;;;;;;;;;;;;;;3.46;nan;102513.09;5027391;28;19937;-85
2023/02/05 02:48:59;;;;;;;;;;;;;;;3.49;nan;102513.00;5028247;28;19928;-85
2023/02/05 02:51:26;;;;;;;;;;;;;;;3.50;nan;102501.59;5030384;28;20592;-85
2023/02/05 02:53:54;;;;;;;;;;;;;;;3.51;nan;102509.41;5029547;28;19940;-85
2023/02/05 02:56:21;;;;;;;;;;;;;;;3.53;nan;102499.75;5019849;28;19924;-84
2023/02/05 02:58:49;;;;;;;;;;;;;;;3.55;nan;102494.44;5018953;28;19923;-82
2023/02/05 03:01:17;;;;;;;;;;;;;;;3.50;nan;102486.75;5037144;28;19925;-86
2023/02/05 03:03:48;;;;;;;;;;;;;;;3.44;nan;102481.78;5029877;28;19917;-86
2023/02/05 03:06:15;;;;;;;;;;;;;;;3.35;nan;102476.88;5020490;28;20000;-85
2023/02/05 03:08:58;;;;;;;;;;;;;;;3.24;nan;102474.66;5027889;28;19971;-86
2023/02/05 03:11:25;;;;;;;;;;;;;;;3.16;nan;102476.69;5026740;28;19917;-87
2023/02/05 03:13:50;;;;;;;;;;;;;;;3.14;nan;102473.28;5027752;28;20554;-86
2023/02/05 03:16:17;;;;;;;;;;;;;;;3.13;nan;102475.06;5021806;28;19927;-86
2023/02/05 03:18:42;;;;;;;;;;;;;;;3.09;nan;102468.22;5030894;28;19965;-85
2023/02/05 03:21:11;;;;;;;;;;;;;;;3.10;nan;102467.34;5029956;28;19921;-85
2023/02/05 03:23:37;;;;;;;;;;;;;;;3.11;nan;102460.34;5034820;28;19924;-85
2023/02/05 03:26:02;;;;;;;;;;;;;;;3.15;nan;102465.41;5022727;28;19921;-85
2023/02/05 03:28:27;;;;;;;;;;;;;;;3.21;nan;102463.47;5027677;28;19975;-85
2023/02/05 03:30:52;;;;;;;;;;;;;;;3.25;nan;102454.59;5023171;28;19928;-85
2023/02/05 03:33:17;;;;;;;;;;;;;;;3.26;nan;102454.53;5027866;28;19951;-85
2023/02/05 03:36:15;;;;;;;;;;;;;;;3.30;nan;102450.91;5029685;28;20468;-84
2023/02/05 03:38:47;;;;;;;;;;;;;;;3.35;nan;102448.97;5023341;28;20628;-85
2023/02/05 03:41:12;;;;;;;;;;;;;;;3.37;nan;102441.91;5039559;28;20004;-85
2023/02/05 03:43:53;;;;;;;;;;;;;;;3.37;nan;102451.53;5025389;28;20397;-85
2023/02/05 03:46:18;;;;;;;;;;;;;;;3.38;nan;102461.94;5021552;28;19917;-85
2023/02/05 03:48:58;;;;;;;;;;;;;;;3.38;nan;102468.91;5023070;28;19944;-85
2023/02/05 03:51:45;;;;;;;;;;;;;;;3.38;nan;102461.06;5022027;28;19921;-85
2023/02/05 03:54:15;;;;;;;;;;;;;;;3.40;nan;102460.09;5019908;28;19917;-84
2023/02/05 03:56:59;;;;;;;;;;;;;;;3.47;nan;102454.66;5029279;28;19932;-85
2023/02/05 03:59:25;;;;;;;;;;;;;;;3.48;nan;102451.09;5036749;28;20051;-85
2023/02/05 04:01:51;;;;;;;;;;;;;;;3.48;nan;102457.22;5025939;28;19995;-85
2023/02/05 04:04:16;;;;;;;;;;;;;;;3.50;nan;102446.66;5026704;28;19929;-86
2023/02/05 04:06:50;;;;;;;;;;;;;;;3.54;nan;102445.66;5027010;28;20409;-86
2023/02/05 04:09:16;;;;;;;;;;;;;;;3.58;nan;102452.47;5047686;28;20413;-85
2023/02/05 04:11:41;;;;;;;;;;;;;;;3.61;nan;102453.19;5035282;28;19924;-85
2023/02/05 04:14:06;;;;;;;;;;;;;;;3.63;nan;102450.53;5032059;28;20409;-86
2023/02/05 04:16:31;;;;;;;;;;;;;;;3.66;nan;102458.25;5029762;28;19953;-86
2023/02/05 04:18:56;;;;;;;;;;;;;;;3.66;nan;102452.19;5033113;28;20374;-86
2023/02/05 04:21:22;;;;;;;;;;;;;;;3.66;nan;102446.94;5040492;28;19917;-86
2023/02/05 04:23:47;;;;;;;;;;;;;;;3.66;nan;102453.03;5037444;28;19917;-86
2023/02/05 04:26:12;;;;;;;;;;;;;;;3.65;nan;102459.19;5039267;28;19924;-86
2023/02/05 04:28:37;;;;;;;;;;;;;;;3.67;nan;102461.72;5032977;28;19964;-85
2023/02/05 04:31:05;;;;;;;;;;;;;;;3.68;nan;102458.22;5029805;28;20349;-86
2023/02/05 04:33:30;;;;;;;;;;;;;;;3.66;nan;102466.09;5032457;28;20290;-86
2023/02/05 04:35:59;;;;;;;;;;;;;;;3.64;nan;102467.91;5025563;28;19917;-86
2023/02/05 04:38:25;;;;;;;;;;;;;;;3.65;nan;102461.78;5030680;28;19963;-85
2023/02/05 04:40:50;;;;;;;;;;;;;;;3.69;nan;102459.91;5027642;28;19972;-86
2023/02/05 04:43:15;;;;;;;;;;;;;;;3.73;nan;102470.19;5039284;28;20456;-86
2023/02/05 04:45:40;;;;;;;;;;;;;;;3.75;nan;102465.75;5039824;28;19917;-86
2023/02/05 04:48:05;;;;;;;;;;;;;;;3.78;nan;102462.16;5033194;28;20012;-86
2023/02/05 04:50:31;;;;;;;;;;;;;;;3.82;nan;102469.00;5030240;28;19917;-86
2023/02/05 04:52:56;;;;;;;;;;;;;;;3.82;nan;102463.75;5031857;28;20293;-85
2023/02/05 04:55:21;;;;;;;;;;;;;;;3.84;nan;102469.78;5039363;28;19917;-86
2023/02/05 04:57:47;;;;;;;;;;;;;;;3.81;nan;102464.66;5025449;28;20071;-86
2023/02/05 05:00:12;;;;;;;;;;;;;;;3.81;nan;102469.88;5036747;28;20381;-86
2023/02/05 05:02:37;;;;;;;;;;;;;;;3.81;nan;102469.88;5043547;28;19921;-87
2023/02/05 05:05:03;;;;;;;;;;;;;;;3.81;nan;102468.13;5054680;28;20126;-87
2023/02/05 05:07:31;;;;;;;;;;;;;;;3.82;nan;102467.22;5062620;28;19917;-87
2023/02/05 05:09:56;;;;;;;;;;;;;;;3.83;nan;102465.44;5054035;28;19968;-87
2023/02/05 05:12:21;;;;;;;;;;;;;;;3.88;nan;102466.09;5054889;28;19905;-88
2023/02/05 05:14:47;;;;;;;;;;;;;;;3.91;nan;102458.16;5055685;28;19901;-86
2023/02/05 05:17:13;;;;;;;;;;;;;;;3.94;nan;102459.81;5035427;28;19928;-86
2023/02/05 05:19:38;;;;;;;;;;;;;;;3.94;nan;102452.78;5035491;28;20406;-86
2023/02/05 05:22:03;;;;;;;;;;;;;;;3.93;nan;102440.63;5034300;28;19920;-86
2023/02/05 05:24:29;;;;;;;;;;;;;;;3.92;nan;102446.75;5033695;28;19917;-86
2023/02/05 05:26:54;;;;;;;;;;;;;;;3.94;nan;102444.09;5030764;28;19921;-86
2023/02/05 05:29:19;;;;;;;;;;;;;;;3.94;nan;102444.94;5031348;28;19916;-86
2023/02/05 05:31:44;;;;;;;;;;;;;;;3.95;nan;102444.00;5037829;28;20157;-86
2023/02/05 05:34:09;;;;;;;;;;;;;;;3.95;nan;102456.25;5043922;28;19912;-86
2023/02/05 05:36:34;;;;;;;;;;;;;;;3.93;nan;102458.06;5022299;28;19960;-86
2023/02/05 05:43:45;;;;;;;;;;;;;;;3.92;nan;102467.69;5026476;28;20563;-86
2023/02/05 05:44:29;;;;;;;;;;;;;;;3.96;nan;102464.06;5031803;28;19931;-86
2023/02/05 05:46:54;;;;;;;;;;;;;;;3.99;nan;102463.91;5037005;28;20403;-86
2023/02/05 05:49:19;;;;;;;;;;;;;;;4.01;nan;102462.09;5033526;28;20353;-85
2023/02/05 05:51:44;;;;;;;;;;;;;;;3.97;nan;102455.28;5038867;28;20012;-86
2023/02/05 05:54:09;;;;;;;;;;;;;;;3.96;nan;102445.72;5029730;28;19928;-86
2023/02/05 05:56:35;;;;;;;;;;;;;;;3.92;nan;102448.53;5035097;28;19917;-86
2023/02/05 05:59:00;;;;;;;;;;;;;;;3.90;nan;102445.97;5038152;28;19923;-86
2023/02/05 06:01:25;;;;;;;;;;;;;;;3.89;nan;102441.66;5033775;28;19924;-87
2023/02/05 06:03:50;;;;;;;;;;;;;;;3.86;nan;102444.38;5039915;28;19991;-86
2023/02/05 06:06:15;;;;;;;;;;;;;;;3.88;nan;102433.84;5039622;28;19947;-86
2023/02/05 06:08:41;;;;;;;;;;;;;;;3.88;nan;102441.72;5037266;28;19917;-86
2023/02/05 06:11:06;;;;;;;;;;;;;;;3.87;nan;102453.94;5028664;28;19918;-86
2023/02/05 06:13:33;;;;;;;;;;;;;;;3.87;nan;102456.56;5026792;28;19917;-86
2023/02/05 06:15:58;;;;;;;;;;;;;;;3.87;nan;102453.94;5028680;28;19921;-87
2023/02/05 06:18:24;;;;;;;;;;;;;;;3.87;nan;102460.97;5026448;28;19921;-86
2023/02/05 06:20:49;;;;;;;;;;;;;;;3.85;nan;102462.78;5028492;28;19964;-86
2023/02/05 06:23:14;;;;;;;;;;;;;;;3.80;nan;102461.19;5028893;28;19921;-86
2023/02/05 06:25:39;;;;;;;;;;;;;;;3.77;nan;102468.31;5034817;28;20336;-86
2023/02/05 06:28:05;;;;;;;;;;;;;;;3.78;nan;102470.00;5028189;28;19925;-86
2023/02/05 06:30:30;;;;;;;;;;;;;;;3.79;nan;102466.47;5027214;28;19917;-85
2023/02/05 06:32:55;;;;;;;;;;;;;;;3.81;nan;102464.66;5028499;28;19917;-85
2023/02/05 06:35:21;;;;;;;;;;;;;;;3.86;nan;102467.09;5030201;28;19960;-85
2023/02/05 06:37:46;;;;;;;;;;;;;;;3.90;nan;102458.22;5036388;28;19967;-85
2023/02/05 06:40:12;;;;;;;;;;;;;;;3.93;nan;102463.31;5028059;28;19924;-86
2023/02/05 06:42:37;;;;;;;;;;;;;;;3.93;nan;102460.69;5033430;28;19925;-85
2023/02/05 06:45:02;;;;;;;;;;;;;;;3.92;nan;102472.09;5022243;28;19920;-85
2023/02/05 06:47:28;;;;;;;;;;;;;;;3.83;nan;102470.69;5030510;28;19917;-85
2023/02/05 06:49:53;;;;;;;;;;;;;;;3.81;nan;102464.66;5039595;28;19916;-85
2023/02/05 06:52:18;;;;;;;;;;;;;;;3.78;nan;102457.78;5030574;28;19953;-85
2023/02/05 06:54:43;;;;;;;;;;;;;;;3.77;nan;102455.22;5024434;28;19905;-84
2023/02/05 06:57:09;;;;;;;;;;;;;;;3.74;nan;102448.38;5028262;28;19921;-83
2023/02/05 06:59:34;;;;;;;;;;;;;;;3.68;nan;102437.28;5028660;28;19952;-84
2023/02/05 07:01:59;;;;;;;;;;;;;;;3.63;nan;102434.00;5027604;28;19921;-84
2023/02/05 07:04:25;;;;;;;;;;;;;;;3.60;nan;102430.59;5026704;28;19968;-84
2023/02/05 07:06:52;;;;;;;;;;;;;;;3.55;nan;102437.75;5029094;28;19928;-83
2023/02/05 07:09:17;;;;;;;;;;;;;;;3.53;nan;102438.72;5030397;28;20347;-83
2023/02/05 07:11:43;;;;;;;;;;;;;;;3.53;nan;102431.72;5029267;28;19956;-83
2023/02/05 07:14:08;;;;;;;;;;;;;;;3.52;nan;102443.09;5028835;28;19917;-83
2023/02/05 07:16:33;;;;;;;;;;;;;;;3.53;nan;102441.34;5033343;28;20370;-84
2023/02/05 07:18:58;;;;;;;;;;;;;;;3.54;nan;102438.66;5029295;28;20015;-83
2023/02/05 07:21:23;;;;;;;;;;;;;;;3.53;nan;102436.97;5038813;28;19917;-82
2023/02/05 07:23:48;;;;;;;;;;;;;;;3.49;nan;102435.38;5029113;28;19917;-83
2023/02/05 07:26:15;;;;;;;;;;;;;;;3.50;nan;102444.06;5027068;28;19940;-84
2023/02/05 07:28:40;;;;;;;;;;;;;;;3.44;nan;102439.94;5028700;28;19913;-83
2023/02/05 07:31:07;;;;;;;;;;;;;;;3.45;nan;102449.47;5028486;28;20012;-84
2023/02/05 07:33:32;;;;;;;;;;;;;;;3.44;nan;102452.16;5028138;28;20632;-83
2023/02/05 07:36:00;;;;;;;;;;;;;;;3.45;nan;102440.78;5028215;28;19921;-83
2023/02/05 07:38:25;;;;;;;;;;;;;;;3.44;nan;102434.69;5030714;28;19921;-83
2023/02/05 07:40:51;;;;;;;;;;;;;;;3.47;nan;102439.81;5028234;28;19932;-83
2023/02/05 07:43:16;;;;;;;;;;;;;;;3.46;nan;102437.25;5032163;28;19988;-84
2023/02/05 07:45:41;;;;;;;;;;;;;;;3.48;nan;102436.28;5033315;28;19928;-84
2023/02/05 07:48:06;;;;;;;;;;;;;;;3.52;nan;102437.00;5031370;28;20036;-84
2023/02/05 07:50:31;;;;;;;;;;;;;;;3.53;nan;102439.56;5034969;28;19917;-85
2023/02/05 07:52:57;;;;;;;;;;;;;;;3.56;nan;102439.44;5033270;28;20007;-84
2023/02/05 07:55:22;;;;;;;;;;;;;;;3.60;nan;102429.75;5033198;28;20389;-84
2023/02/05 07:57:55;;;;;;;;;;;;;;;3.65;nan;102427.78;5034138;28;19921;-84
2023/02/05 08:00:20;;;;;;;;;;;;;;;3.66;nan;102419.00;5031554;28;19918;-83
2023/02/05 08:02:46;;;;;;;;;;;;;;;3.68;nan;102413.72;5041674;28;19916;-83
2023/02/05 08:05:11;;;;;;;;;;;;;;;3.67;nan;102396.31;5034450;28;19917;-83
2023/02/05 08:07:37;;;;;;;;;;;;;;;3.66;nan;102398.09;5031683;28;20309;-85
2023/02/05 08:10:03;;;;;;;;;;;;;;;3.67;nan;102391.97;5033055;28;19932;-85
2023/02/05 08:12:31;;;;;;;;;;;;;;;3.72;nan;102397.84;5025975;28;19917;-83
2023/02/05 08:14:57;;;;;;;;;;;;;;;3.76;nan;102401.19;5028444;28;19916;-84
2023/02/05 08:17:25;;;;;;;;;;;;;;;3.71;nan;102395.28;5031757;28;19927;-84
2023/02/05 08:19:53;;;;;;;;;;;;;;;3.72;nan;102386.50;5026037;28;19940;-85
2023/02/05 08:22:20;;;;;;;;;;;;;;;3.75;nan;102389.03;5038679;28;19922;-83
2023/02/05 08:24:46;;;;;;;;;;;;;;;3.73;nan;102390.84;5027782;28;19917;-84
2023/02/05 08:27:13;;;;;;;;;;;;;;;3.69;nan;102402.34;5031847;28;19917;-84
2023/02/05 08:29:39;;;;;;;;;;;;;;;3.72;nan;102403.09;5030563;28;21326;-84
2023/02/05 08:32:04;;;;;;;;;;;;;;;3.72;nan;102397.84;5031201;28;19931;-84
2023/02/05 08:34:33;;;;;;;;;;;;;;;3.72;nan;102396.97;5029681;28;19928;-84
2023/02/05 08:36:58;;;;;;;;;;;;;;;3.72;nan;102391.75;5036505;28;20278;-85
2023/02/05 08:39:24;;;;;;;;;;;;;;;3.74;nan;102389.91;5029196;28;19913;-84
2023/02/05 08:41:50;;;;;;;;;;;;;;;3.76;nan;102388.94;5027032;28;19920;-85
2023/02/05 08:44:16;;;;;;;;;;;;;;;3.75;nan;102383.78;5024125;28;19918;-84
2023/02/05 08:46:41;;;;;;;;;;;;;;;3.77;nan;102384.59;5022933;28;20410;-83
2023/02/05 08:49:06;;;;;;;;;;;;;;;3.78;nan;102391.50;5023494;28;19916;-85
2023/02/05 08:51:35;;;;;;;;;;;;;;;3.81;nan;102383.53;5025790;28;19921;-84
2023/02/05 08:54:04;;;;;;;;;;;;;;;3.86;nan;102378.94;5032719;28;19916;-85
2023/02/05 08:56:29;;;;;;;;;;;;;;;3.89;nan;102378.84;5016856;28;19917;-85
2023/02/05 08:58:55;;;;;;;;;;;;;;;3.91;nan;102371.78;5048037;28;19932;-84
2023/02/05 09:01:20;;;;;;;;;;;;;;;3.92;nan;102377.88;5024158;28;20203;-85
2023/02/05 09:03:48;;;;;;;;;;;;;;;3.95;nan;102375.13;5033870;28;19913;-84
2023/02/05 09:06:17;;;;;;;;;;;;;;;3.98;nan;102362.78;5038447;28;20286;-84
2023/02/05 09:08:42;;;;;;;;;;;;;;;4.06;nan;102357.22;5026462;28;19917;-84
2023/02/05 09:11:12;;;;;;;;;;;;;;;4.12;nan;102359.53;5029894;28;20348;-84
2023/02/05 09:13:40;;;;;;;;;;;;;;;4.19;nan;102361.00;5022205;28;20019;-85
2023/02/05 09:16:08;;;;;;;;;;;;;;;4.22;nan;102354.81;5036826;28;19978;-84
2023/02/05 09:18:33;;;;;;;;;;;;;;;4.23;nan;102344.25;5023835;28;19929;-84
2023/02/05 09:20:59;;;;;;;;;;;;;;;4.29;nan;102348.38;5023261;28;19921;-84
2023/02/05 09:23:24;;;;;;;;;;;;;;;4.35;nan;102350.72;5022869;28;19929;-84
2023/02/05 09:25:52;;;;;;;;;;;;;;;4.42;nan;102357.38;5028391;28;19917;-84
2023/02/05 09:28:18;;;;;;;;;;;;;;;4.49;nan;102357.13;5024461;28;19917;-84
2023/02/05 09:30:46;;;;;;;;;;;;;;;4.53;nan;102348.19;5033605;28;19925;-84
2023/02/05 09:33:13;;;;;;;;;;;;;;;4.54;nan;102357.78;5033153;28;19929;-85
2023/02/05 09:35:38;;;;;;;;;;;;;;;4.54;nan;102355.16;5029569;28;19923;-85
2023/02/05 09:38:07;;;;;;;;;;;;;;;4.51;nan;102360.53;5026251;28;19922;-85
2023/02/05 09:41:01;;;;;;;;;;;;;;;4.43;nan;102356.50;5034827;28;20616;-85
2023/02/05 09:43:46;;;;;;;;;;;;;;;4.38;nan;102358.44;5029371;28;20214;-85
2023/02/05 09:46:26;;;;;;;;;;;;;;;4.36;nan;102359.41;5015548;28;19921;-85
2023/02/05 09:48:52;;;;;;;;;;;;;;;4.32;nan;102348.25;5024334;28;20305;-84
2023/02/05 09:51:20;;;;;;;;;;;;;;;4.31;nan;102369.25;5030271;28;19917;-84
2023/02/05 09:53:53;;;;;;;;;;;;;;;4.29;nan;102356.25;5023821;28;19921;-85
2023/02/05 09:56:22;;;;;;;;;;;;;;;4.28;nan;102359.75;5031462;28;19933;-84
2023/02/05 09:58:49;;;;;;;;;;;;;;;4.31;nan;102348.28;5032754;28;19921;-85
2023/02/05 10:01:33;;;;;;;;;;;;;;;4.29;nan;102352.75;5031867;28;19917;-84
2023/02/05 10:04:01;;;;;;;;;;;;;;;4.28;nan;102349.28;5032814;28;19917;-84
2023/02/05 10:06:36;;;;;;;;;;;;;;;4.32;nan;102347.41;5032080;28;19925;-84
2023/02/05 10:09:22;;;;;;;;;;;;;;;4.40;nan;102340.88;5034384;28;19917;-85
2023/02/05 10:11:58;;;;;;;;;;;;;;;4.45;nan;102336.28;5036488;28;19917;-85
2023/02/05 10:14:31;;;;;;;;;;;;;;;4.49;nan;102328.31;5028782;28;19928;-84
2023/02/05 10:17:05;;;;;;;;;;;;;;;4.50;nan;102316.91;5032956;28;19921;-85
2023/02/05 10:19:42;;;;;;;;;;;;;;;4.50;nan;102328.22;5035637;28;19921;-84
2023/02/05 10:22:10;;;;;;;;;;;;;;;4.54;nan;102323.72;5032680;28;19916;-84
2023/02/05 10:24:41;;;;;;;;;;;;;;;4.53;nan;102312.41;5030524;28;19917;-85
2023/02/05 10:27:19;;;;;;;;;;;;;;;4.57;nan;102305.25;5032844;28;20370;-83
2023/02/05 10:30:02;;;;;;;;;;;;;;;4.57;nan;102307.84;5033392;28;19928;-84
2023/02/05 10:32:47;;;;;;;;;;;;;;;4.55;nan;102313.16;5029703;28;20322;-84
2023/02/05 10:35:16;;;;;;;;;;;;;;;4.55;nan;102304.44;5023711;28;19921;-85
2023/02/05 10:37:49;;;;;;;;;;;;;;;4.51;nan;102293.28;5027180;28;19920;-83
2023/02/05 10:40:22;;;;;;;;;;;;;;;4.50;nan;102301.19;5029769;28;20434;-84
2023/02/05 10:42:54;;;;;;;;;;;;;;;4.45;nan;102306.63;5022118;28;20345;-83
2023/02/05 10:45:24;;;;;;;;;;;;;;;4.41;nan;102302.44;5028255;28;19979;-84
2023/02/05 10:48:12;;;;;;;;;;;;;;;4.45;nan;102307.47;5032743;28;19913;-84
2023/02/05 10:50:46;;;;;;;;;;;;;;;4.46;nan;102305.72;4996571;28;19917;-84
2023/02/05 10:53:14;;;;;;;;;;;;;;;4.49;nan;102296.88;5028799;28;19976;-84
2023/02/05 10:55:39;;;;;;;;;;;;;;;4.46;nan;102305.72;5030991;28;19989;-83
2023/02/05 10:58:19;;;;;;;;;;;;;;;4.46;nan;102301.34;5015198;28;19979;-84
2023/02/05 11:00:45;;;;;;;;;;;;;;;4.53;nan;102293.19;5035593;28;19931;-84
2023/02/05 11:03:14;;;;;;;;;;;;;;;4.52;nan;102279.25;5029915;28;19921;-84
2023/02/05 11:05:40;;;;;;;;;;;;;;;4.61;nan;102285.84;5029437;28;19985;-84
2023/02/05 11:08:25;;;;;;;;;;;;;;;4.69;nan;102281.09;5029739;28;19952;-84
2023/02/05 11:10:52;;;;;;;;;;;;;;;4.78;nan;102285.91;5028196;28;19931;-83
2023/02/05 11:13:19;;;;;;;;;;;;;;;4.79;nan;102281.50;5028034;28;20003;-84
2023/02/05 11:15:55;;;;;;;;;;;;;;;4.77;nan;102276.38;5037110;28;20465;-83
2023/02/05 11:18:22;;;;;;;;;;;;;;;4.85;nan;102281.25;5031092;28;19921;-83
2023/02/05 11:20:54;;;;;;;;;;;;;;;4.92;nan;102266.94;5033581;28;19917;-84
2023/02/05 11:23:23;;;;;;;;;;;;;;;4.93;nan;102270.38;5026383;28;20333;-83
2023/02/05 11:25:50;;;;;;;;;;;;;;;4.89;nan;102270.53;5026585;28;20265;-84
2023/02/05 11:28:21;;;;;;;;;;;;;;;4.88;nan;102255.72;5018859;28;19917;-83
2023/02/05 11:30:47;;;;;;;;;;;;;;;4.79;nan;102269.28;5025910;28;19927;-83
2023/02/05 11:33:17;;;;;;;;;;;;;;;4.80;nan;102262.25;5029355;28;19916;-82
2023/02/05 11:35:51;;;;;;;;;;;;;;;4.84;nan;102255.97;5028417;28;20346;-84
2023/02/05 11:38:39;;;;;;;;;;;;;;;4.89;nan;102261.84;5017981;28;20019;-84
2023/02/05 11:41:05;;;;;;;;;;;;;;;4.88;nan;102260.97;5006064;28;19917;-85
2023/02/05 11:43:30;;;;;;;;;;;;;;;4.86;nan;102252.34;5027523;28;19917;-84
2023/02/05 11:45:57;;;;;;;;;;;;;;;4.80;nan;102247.38;5027785;28;20283;-85
2023/02/05 11:48:26;;;;;;;;;;;;;;;4.81;nan;102246.44;5027034;28;19959;-84
2023/02/05 11:50:51;;;;;;;;;;;;;;;4.83;nan;102244.59;5042545;28;20386;-85
2023/02/05 11:53:18;;;;;;;;;;;;;;;4.89;nan;102248.72;5027148;28;19936;-85
2023/02/05 11:55:44;;;;;;;;;;;;;;;4.94;nan;102249.34;5028727;28;20087;-85
2023/02/05 11:58:20;;;;;;;;;;;;;;;4.98;nan;102242.19;5027184;28;19921;-84
2023/02/05 12:00:49;;;;;;;;;;;;;;;5.02;nan;102238.50;5026888;28;19929;-84
2023/02/05 12:03:16;;;;;;;;;;;;;;;5.04;nan;102247.16;5027931;28;20033;-84
2023/02/05 12:05:49;;;;;;;;;;;;;;;4.99;nan;102246.53;5026530;28;19925;-85
2023/02/05 12:08:15;;;;;;;;;;;;;;;4.95;nan;102250.19;5025374;28;19924;-86
2023/02/05 12:10:46;;;;;;;;;;;;;;;4.89;nan;102243.50;5024398;28;19928;-84
2023/02/05 12:13:30;;;;;;;;;;;;;;;4.87;nan;102240.94;5027229;28;20389;-84
2023/02/05 12:15:59;;;;;;;;;;;;;;;4.88;nan;102244.41;5032776;28;19917;-86
2023/02/05 12:18:27;;;;;;;;;;;;;;;4.92;nan;102224.97;5028005;28;19925;-86
2023/02/05 12:21:05;;;;;;;;;;;;;;;4.98;nan;102226.44;5028914;28;19924;-85
2023/02/05 12:23:36;;;;;;;;;;;;;;;5.03;nan;102222.72;5031168;28;19925;-85
2023/02/05 12:26:24;;;;;;;;;;;;;;;5.10;nan;102224.09;5034209;28;19983;-86
2023/02/05 12:29:08;;;;;;;;;;;;;;;5.18;nan;102226.34;5032775;28;19933;-85
2023/02/05 12:31:46;;;;;;;;;;;;;;;5.17;nan;102218.53;5031260;28;19917;-86
2023/02/05 12:34:15;;;;;;;;;;;;;;;5.19;nan;102219.31;5030953;28;20020;-85
2023/02/05 12:36:47;;;;;;;;;;;;;;;5.15;nan;102212.53;5034500;28;19945;-85
2023/02/05 12:39:18;;;;;;;;;;;;;;;5.12;nan;102218.78;5036262;28;19924;-84
2023/02/05 12:41:50;;;;;;;;;;;;;;;5.07;nan;102210.28;5036693;28;19952;-84
2023/02/05 12:44:23;;;;;;;;;;;;;;;5.05;nan;102206.88;5032102;28;19936;-84
2023/02/05 12:46:49;;;;;;;;;;;;;;;5.06;nan;102203.34;5037997;28;19964;-84
2023/02/05 12:49:14;;;;;;;;;;;;;;;5.08;nan;102212.00;5034185;28;19928;-84
2023/02/05 12:51:59;;;;;;;;;;;;;;;5.05;nan;102206.88;5033005;28;19917;-84
2023/02/05 12:54:45;;;;;;;;;;;;;;;5.01;nan;102210.59;5043056;28;19956;-83
2023/02/05 12:57:13;;;;;;;;;;;;;;;5.01;nan;102205.34;5029756;28;20019;-84
2023/02/05 12:59:43;;;;;;;;;;;;;;;5.01;nan;102213.22;5049492;28;19925;-85
2023/02/05 13:02:14;;;;;;;;;;;;;;;5.02;nan;102214.91;5026227;28;19978;-84
2023/02/05 13:04:43;;;;;;;;;;;;;;;5.03;nan;102217.47;5035564;28;19917;-84
2023/02/05 13:07:27;;;;;;;;;;;;;;;5.08;nan;102206.75;5025932;28;19924;-84
2023/02/05 13:09:59;;;;;;;;;;;;;;;5.16;nan;102201.97;5037473;28;19916;-84
2023/02/05 13:12:26;;;;;;;;;;;;;;;5.21;nan;102207.84;5024323;28;20000;-84
2023/02/05 13:14:51;;;;;;;;;;;;;;;5.26;nan;102205.81;5032610;28;20008;-83
2023/02/05 13:17:20;;;;;;;;;;;;;;;5.31;nan;102205.59;5028371;28;19964;-84